Time;durP1;ratioP1;P1;durP2;ratioP2;P2;SDS_P1;SDS_P2;PMS_P1;PMS_P2;Temp;Humidity;BMP_temperature;BMP_pressure;BME280_temperature;BME280_humidity;BME280_pressure;Samples;Min_cycle;Max_cycle;Signal;HPM_P1;HPM_P2
2023/02/16 00:00:01;;;;;;;46.65;29.77;;;15.80;68.40;;;;;;4226816;28;20055;-60
2023/02/16 00:02:44;;;;;;;43.47;30.52;;;15.90;68.30;;;;;;4228039;27;20127;-60
2023/02/16 00:05:28;;;;;;;49.83;31.48;;;15.90;68.10;;;;;;4212054;28;20176;-69
2023/02/16 00:08:10;;;;;;;47.08;31.30;;;15.90;68.00;;;;;;4226113;28;20058;-68
2023/02/16 00:13:53;;;;;;;47.42;30.58;;;15.90;67.70;;;;;;4210612;28;20069;-68
2023/02/16 00:16:34;;;;;;;50.33;30.95;;;15.90;67.70;;;;;;4224483;28;20046;-68
2023/02/16 00:19:21;;;;;;;49.55;31.92;;;15.90;67.70;;;;;;4210014;28;20559;-61
2023/02/16 00:22:03;;;;;;;44.70;31.52;;;15.80;67.60;;;;;;4227443;27;20136;-61
2023/02/16 00:24:46;;;;;;;45.28;30.55;;;15.80;67.90;;;;;;4211054;28;20057;-60
2023/02/16 00:27:27;;;;;;;45.67;30.55;;;15.80;68.30;;;;;;4210598;28;20063;-60
2023/02/16 00:30:15;;;;;;;47.20;31.25;;;15.80;68.30;;;;;;4226244;28;20453;-61
2023/02/16 00:32:56;;;;;;;44.75;29.77;;;15.80;68.00;;;;;;4226134;28;20054;-60
2023/02/16 00:35:36;;;;;;;48.50;30.97;;;15.80;68.10;;;;;;4210543;28;20485;-61
2023/02/16 00:38:17;;;;;;;44.03;30.13;;;15.80;68.00;;;;;;4224014;27;20381;-61
2023/02/16 00:41:00;;;;;;;44.40;30.13;;;15.90;68.00;;;;;;4224971;28;20058;-61
2023/02/16 00:43:41;;;;;;;43.35;29.60;;;15.90;67.80;;;;;;4225503;27;20081;-61
2023/02/16 00:46:22;;;;;;;47.47;32.67;;;16.00;68.50;;;;;;4226049;27;20058;-59
2023/02/16 00:49:03;;;;;;;45.15;29.90;;;16.10;67.40;;;;;;4222757;28;20069;-61
2023/02/16 00:51:44;;;;;;;46.92;30.77;;;16.10;67.00;;;;;;4225991;27;20050;-69
2023/02/16 00:54:26;;;;;;;;;;;16.10;67.00;;;;;;4211015;28;20055;-68
2023/02/16 00:57:16;;;;;;;45.53;30.58;;;16.10;67.10;;;;;;4209527;28;19927;-69
2023/02/16 01:00:00;;;;;;;48.20;31.33;;;16.20;66.80;;;;;;4209189;28;20055;-69
2023/02/16 01:02:42;;;;;;;42.67;30.20;;;16.20;66.50;;;;;;4216348;27;20050;-68
2023/02/16 01:05:23;;;;;;;47.35;31.63;;;16.20;66.20;;;;;;4227279;27;20184;-68
2023/02/16 01:11:12;;;;;;;42.67;30.08;;;16.20;66.10;;;;;;4226675;27;20054;-60
2023/02/16 01:13:56;;;;;;;48.10;31.13;;;16.30;66.10;;;;;;4209780;28;20057;-60
2023/02/16 01:16:39;;;;;;;47.45;30.50;;;16.20;66.00;;;;;;4210456;28;20043;-60
2023/02/16 01:19:20;;;;;;;47.88;31.08;;;16.30;66.10;;;;;;4198721;28;20059;-60
2023/02/16 01:22:01;;;;;;;48.25;32.25;;;16.20;66.10;;;;;;4194287;28;20055;-60
2023/02/16 01:24:42;;;;;;;44.72;31.48;;;16.20;66.50;;;;;;4211083;28;20514;-61
2023/02/16 01:27:23;;;;;;;48.95;31.90;;;16.20;66.50;;;;;;4226728;27;20121;-61
2023/02/16 01:30:07;;;;;;;46.63;30.33;;;16.30;66.40;;;;;;4208744;28;20065;-61
2023/02/16 01:32:51;;;;;;;43.78;29.40;;;16.30;66.00;;;;;;4207657;28;20128;-61
2023/02/16 01:35:34;;;;;;;43.17;29.95;;;16.30;65.80;;;;;;4209018;28;20046;-60
2023/02/16 01:38:18;;;;;;;48.58;31.95;;;16.40;65.60;;;;;;4223991;27;20058;-61
2023/02/16 01:41:08;;;;;;;46.25;31.77;;;16.40;65.70;;;;;;4226346;28;20062;-61
2023/02/16 01:43:52;;;;;;;42.67;30.77;;;16.30;65.60;;;;;;4225825;27;20393;-61
2023/02/16 01:46:43;;;;;;;47.20;31.00;;;16.20;65.80;;;;;;4208455;28;20047;-60
2023/02/16 01:49:24;;;;;;;46.20;30.80;;;16.20;65.90;;;;;;4209746;28;20051;-69
2023/02/16 01:52:12;;;;;;;47.28;31.02;;;16.20;66.20;;;;;;4220224;28;20058;-68
2023/02/16 01:54:58;;;;;;;44.63;30.35;;;16.30;66.10;;;;;;4210531;28;20063;-68
2023/02/16 01:57:45;;;;;;;51.08;31.33;;;16.30;66.00;;;;;;4226322;28;20081;-69
2023/02/16 02:00:29;;;;;;;44.47;31.08;;;16.30;65.80;;;;;;4225217;28;20058;-69
2023/02/16 02:06:21;;;;;;;44.22;30.35;;;16.20;65.80;;;;;;4203705;28;20568;-69
2023/02/16 02:09:06;;;;;;;47.72;30.92;;;16.20;66.20;;;;;;4221944;28;20050;-68
2023/02/16 02:11:55;;;;;;;49.63;30.55;;;16.10;66.30;;;;;;4225543;28;20051;-67
2023/02/16 02:14:39;;;;;;;48.03;32.00;;;16.20;66.10;;;;;;4211125;28;20045;-68
2023/02/16 02:17:21;;;;;;;45.05;30.77;;;16.20;66.00;;;;;;4209513;28;20089;-70
2023/02/16 02:20:12;;;;;;;48.35;31.35;;;16.30;66.70;;;;;;4224937;28;20050;-68
2023/02/16 02:23:31;;;;;;;45.40;30.42;;;16.30;65.70;;;;;;4211529;28;20168;-67
2023/02/16 02:27:01;;;;;;;46.45;31.73;;;16.30;65.50;;;;;;4209953;28;20051;-70
2023/02/16 02:30:19;;;;;;;47.28;32.22;;;16.20;65.50;;;;;;4203185;28;20190;-62
2023/02/16 02:33:25;;;;;;;43.38;30.90;;;16.20;65.80;;;;;;4217987;28;20082;-62
2023/02/16 02:36:19;;;;;;;44.15;29.98;;;16.30;65.80;;;;;;4224433;28;20055;-62
2023/02/16 02:39:12;;;;;;;42.53;30.38;;;16.30;65.80;;;;;;4223823;28;20046;-62
2023/02/16 02:42:05;;;;;;;42.88;29.80;;;16.30;65.60;;;;;;4222456;28;20047;-62
2023/02/16 02:44:58;;;;;;;46.25;31.05;;;16.30;65.50;;;;;;4224789;28;20124;-62
2023/02/16 02:47:40;;;;;;;43.80;30.65;;;16.30;65.80;;;;;;4210761;28;20387;-62
2023/02/16 02:51:27;;;;;;;45.85;30.88;;;16.20;65.70;;;;;;4208010;28;20055;-61
2023/02/16 03:00:39;;;;;;;47.22;31.25;;;16.20;65.60;;;;;;4207371;28;20059;-62
2023/02/16 03:03:04;;;;;;;;;;;16.30;65.60;;;;;;4210886;28;20616;-61
2023/02/16 03:05:48;;;;;;;44.80;30.58;;;16.30;65.60;;;;;;4225204;28;19931;-61
2023/02/16 03:08:32;;;;;;;41.67;28.70;;;16.30;65.50;;;;;;4211837;28;20051;-62
2023/02/16 03:14:25;;;;;;;44.67;30.42;;;16.30;65.30;;;;;;4188976;28;20198;-68
2023/02/16 03:29:17;;;;;;;54.63;32.35;;;16.40;65.10;;;;;;4225682;27;20054;-67
2023/02/16 03:31:59;;;;;;;45.05;31.08;;;16.30;65.10;;;;;;4226509;28;20050;-69
2023/02/16 03:34:41;;;;;;;44.33;30.15;;;16.30;65.20;;;;;;4211223;28;20043;-69
2023/02/16 03:37:22;;;;;;;45.00;28.60;;;16.30;65.30;;;;;;4222184;28;20054;-69
2023/02/16 03:43:17;;;;;;;42.10;29.10;;;16.30;65.30;;;;;;4159349;28;20140;-69
2023/02/16 03:45:58;;;;;;;44.83;29.98;;;16.30;65.10;;;;;;4174526;28;20060;-69
2023/02/16 03:48:41;;;;;;;43.95;29.70;;;16.30;64.90;;;;;;4203633;28;20051;-69
2023/02/16 03:51:21;;;;;;;44.92;30.25;;;16.30;65.00;;;;;;4211116;28;20047;-60
2023/02/16 03:54:02;;;;;;;42.45;29.83;;;16.20;65.00;;;;;;4211060;28;20039;-71
2023/02/16 03:56:43;;;;;;;45.38;30.45;;;16.20;65.30;;;;;;4212997;28;20481;-69
2023/02/16 03:59:24;;;;;;;44.58;31.33;;;16.30;65.20;;;;;;4211020;28;20055;-68
2023/02/16 04:02:05;;;;;;;39.83;29.33;;;16.30;65.00;;;;;;4210932;28;20113;-69
2023/02/16 04:04:48;;;;;;;42.15;29.90;;;16.30;64.90;;;;;;4224724;27;20059;-69
2023/02/16 04:07:28;;;;;;;41.33;29.23;;;16.30;64.70;;;;;;4227905;28;20047;-68
2023/02/16 04:10:11;;;;;;;44.03;30.33;;;16.30;64.80;;;;;;4212226;28;20054;-69
2023/02/16 04:12:52;;;;;;;40.88;30.45;;;16.40;64.60;;;;;;4227757;27;20074;-70
2023/02/16 04:15:33;;;;;;;43.35;31.52;;;16.40;64.60;;;;;;4227752;27;20046;-69
2023/02/16 04:18:14;;;;;;;46.42;32.55;;;16.30;64.40;;;;;;4226695;28;20054;-68
2023/02/16 04:20:56;;;;;;;47.58;30.02;;;16.30;64.50;;;;;;4210435;28;20079;-69
2023/02/16 04:23:36;;;;;;;48.60;32.50;;;16.30;64.80;;;;;;4194026;28;20044;-68
2023/02/16 04:26:18;;;;;;;45.63;30.15;;;16.30;65.60;;;;;;4203734;28;20051;-68
2023/02/16 04:28:59;;;;;;;46.97;32.45;;;16.40;64.70;;;;;;4210526;28;20051;-70
2023/02/16 04:31:39;;;;;;;44.80;30.25;;;16.40;64.40;;;;;;4209305;28;20055;-69
2023/02/16 04:34:20;;;;;;;43.33;29.50;;;16.40;64.30;;;;;;4194786;28;20515;-69
2023/02/16 04:37:04;;;;;;;38.90;29.08;;;16.40;64.30;;;;;;4206489;28;20129;-69
2023/02/16 04:39:45;;;;;;;45.72;29.70;;;16.30;64.30;;;;;;4211627;28;20124;-70
2023/02/16 04:42:26;;;;;;;47.88;30.52;;;16.30;64.40;;;;;;4227248;27;20402;-69
2023/02/16 04:45:08;;;;;;;43.90;30.67;;;16.30;64.50;;;;;;4224769;28;20047;-69
2023/02/16 04:47:49;;;;;;;47.08;30.38;;;16.30;64.50;;;;;;4226874;27;20517;-68
2023/02/16 04:50:30;;;;;;;40.65;30.25;;;16.30;64.50;;;;;;4227262;27;20051;-69
2023/02/16 04:53:13;;;;;;;41.33;29.13;;;16.40;64.50;;;;;;4227194;27;20117;-70
2023/02/16 04:55:53;;;;;;;41.17;29.33;;;16.40;64.20;;;;;;4221907;27;20055;-69
2023/02/16 04:58:34;;;;;;;44.25;29.20;;;16.40;64.00;;;;;;4226875;28;20054;-70
2023/02/16 05:01:20;;;;;;;45.15;30.63;;;16.40;64.20;;;;;;4227161;27;20501;-69
2023/02/16 05:04:01;;;;;;;44.97;31.17;;;16.40;64.10;;;;;;4209296;28;20054;-69
2023/02/16 05:06:42;;;;;;;44.38;30.95;;;16.30;64.40;;;;;;4208705;28;20050;-69
2023/02/16 05:09:25;;;;;;;47.63;31.60;;;16.40;64.30;;;;;;4210286;28;20050;-68
2023/02/16 05:15:05;;;;;;;44.72;28.17;;;16.40;64.10;;;;;;4214947;27;20137;-61
2023/02/16 05:17:46;;;;;;;44.97;31.08;;;16.40;64.20;;;;;;4226759;27;20125;-61
2023/02/16 05:23:23;;;;;;;43.50;29.67;;;16.30;64.10;;;;;;4226530;27;20505;-67
2023/02/16 05:26:05;;;;;;;42.60;28.95;;;16.30;64.50;;;;;;4225607;28;20046;-69
2023/02/16 05:28:46;;;;;;;42.67;30.45;;;16.20;64.60;;;;;;4208615;28;20042;-69
2023/02/16 05:31:29;;;;;;;47.13;31.75;;;16.30;64.60;;;;;;4209622;28;20046;-69
2023/02/16 05:34:10;;;;;;;43.13;30.30;;;16.30;64.40;;;;;;4210156;28;20069;-70
2023/02/16 05:36:52;;;;;;;47.40;31.58;;;16.30;64.30;;;;;;4208770;28;20043;-61
2023/02/16 05:39:33;;;;;;;41.75;31.05;;;16.40;64.20;;;;;;4208115;28;20059;-61
2023/02/16 05:42:15;;;;;;;47.73;32.33;;;16.40;64.20;;;;;;4208296;28;20108;-61
2023/02/16 05:44:56;;;;;;;47.42;29.45;;;16.30;64.10;;;;;;4218713;28;20437;-60
2023/02/16 05:47:37;;;;;;;42.65;29.88;;;16.40;64.30;;;;;;4209476;28;20128;-60
2023/02/16 05:50:18;;;;;;;49.35;31.13;;;16.40;64.20;;;;;;4209029;28;20054;-60
2023/02/16 05:52:59;;;;;;;41.50;29.60;;;16.30;64.10;;;;;;4215882;28;20501;-61
2023/02/16 05:55:40;;;;;;;42.65;29.73;;;16.30;64.20;;;;;;4220054;28;20402;-61
2023/02/16 05:58:23;;;;;;;42.13;27.60;;;16.30;64.20;;;;;;4226105;27;20050;-60
2023/02/16 06:01:04;;;;;;;44.03;29.88;;;16.30;64.20;;;;;;4224538;28;20088;-61
2023/02/16 06:03:45;;;;;;;41.28;29.55;;;16.30;64.30;;;;;;4222330;28;20054;-70
2023/02/16 06:06:26;;;;;;;46.07;30.27;;;16.20;64.40;;;;;;4226164;27;20051;-69
2023/02/16 06:09:09;;;;;;;42.65;29.63;;;16.10;64.50;;;;;;4209473;28;20058;-69
2023/02/16 06:11:50;;;;;;;43.50;29.50;;;16.10;64.80;;;;;;4226227;28;20055;-70
2023/02/16 06:14:31;;;;;;;43.57;30.40;;;16.00;65.00;;;;;;4211490;27;20046;-70
2023/02/16 06:17:13;;;;;;;41.85;28.88;;;16.10;65.20;;;;;;4225698;28;20058;-69
2023/02/16 06:19:54;;;;;;;42.70;31.17;;;16.10;65.20;;;;;;4226076;28;20050;-69
2023/02/16 06:22:35;;;;;;;45.25;31.92;;;16.10;65.10;;;;;;4222000;28;20178;-69
2023/02/16 06:25:19;;;;;;;42.92;31.13;;;16.10;65.00;;;;;;4219427;28;20398;-70
2023/02/16 06:28:00;;;;;;;43.00;28.90;;;16.20;65.10;;;;;;4210575;28;20505;-71
2023/02/16 06:30:42;;;;;;;43.92;30.25;;;16.20;64.90;;;;;;4209049;28;20093;-69
2023/02/16 06:33:23;;;;;;;45.78;31.80;;;16.30;64.50;;;;;;4203448;28;20046;-70
2023/02/16 06:36:05;;;;;;;43.58;31.52;;;16.30;64.30;;;;;;4199210;28;20055;-70
2023/02/16 06:38:46;;;;;;;50.58;32.00;;;16.40;64.10;;;;;;4224263;28;20058;-70
2023/02/16 06:41:36;;;;;;;47.00;31.58;;;16.40;64.00;;;;;;4210407;28;20399;-68
2023/02/16 06:44:17;;;;;;;45.22;31.55;;;16.40;64.00;;;;;;4211323;28;20047;-69
2023/02/16 06:47:00;;;;;;;45.83;31.00;;;16.40;63.90;;;;;;4212545;28;20055;-69
2023/02/16 06:49:41;;;;;;;41.47;30.20;;;16.40;64.00;;;;;;4203821;28;20071;-70
2023/02/16 06:52:22;;;;;;;43.42;31.27;;;16.30;64.10;;;;;;4226814;28;20058;-69
2023/02/16 06:55:03;;;;;;;49.80;32.78;;;16.30;64.10;;;;;;4225981;28;20173;-68
2023/02/16 06:57:44;;;;;;;44.80;30.42;;;16.30;64.30;;;;;;4227574;28;20047;-70
2023/02/16 07:00:25;;;;;;;44.47;31.23;;;16.30;64.60;;;;;;4217945;28;20055;-68
2023/02/16 07:03:07;;;;;;;47.47;31.50;;;16.20;64.50;;;;;;4228623;28;20061;-69
2023/02/16 07:05:49;;;;;;;45.95;31.10;;;16.30;64.60;;;;;;4212268;28;20055;-69
2023/02/16 07:08:30;;;;;;;43.03;29.90;;;16.30;64.50;;;;;;4228368;27;20105;-69
2023/02/16 07:11:12;;;;;;;43.63;29.65;;;16.30;64.20;;;;;;4228571;27;20105;-67
2023/02/16 07:13:53;;;;;;;;;;;16.30;64.00;;;;;;4227810;27;20050;-70
2023/02/16 07:16:34;;;;;;;44.63;28.98;;;16.30;63.90;;;;;;4223509;28;19927;-70
2023/02/16 07:19:16;;;;;;;46.70;31.17;;;16.30;63.90;;;;;;4211552;28;20132;-70
2023/02/16 07:21:56;;;;;;;43.30;30.92;;;16.30;63.80;;;;;;4209402;28;20047;-70
2023/02/16 07:24:37;;;;;;;44.67;31.30;;;16.30;63.40;;;;;;4196203;28;20074;-69
2023/02/16 07:27:18;;;;;;;44.17;31.55;;;16.30;63.10;;;;;;4227361;27;20047;-70
2023/02/16 07:29:59;;;;;;;45.30;29.95;;;16.30;62.90;;;;;;4212066;28;20093;-70
2023/02/16 07:32:40;;;;;;;43.95;29.05;;;16.30;62.70;;;;;;4227991;28;20043;-68
2023/02/16 07:35:22;;;;;;;45.78;27.63;;;16.30;62.30;;;;;;4211518;28;20055;-70
2023/02/16 07:38:04;;;;;;;45.20;30.80;;;16.40;61.90;;;;;;4214877;28;20661;-68
2023/02/16 07:40:45;;;;;;;29.02;17.45;;;16.30;61.70;;;;;;4228275;28;20120;-69
2023/02/16 07:43:26;;;;;;;39.75;27.02;;;16.30;61.70;;;;;;4213167;28;20082;-69
2023/02/16 07:46:08;;;;;;;;;;;16.40;61.40;;;;;;4228764;27;20516;-69
2023/02/16 07:48:49;;;;;;;45.08;30.25;;;16.50;60.90;;;;;;4228063;27;19938;-69
2023/02/16 07:51:32;;;;;;;44.78;28.40;;;16.50;60.00;;;;;;4226837;28;20066;-68
2023/02/16 07:54:13;;;;;;;41.65;28.08;;;16.60;59.80;;;;;;4217662;27;20137;-69
2023/02/16 07:56:54;;;;;;;45.80;30.58;;;16.60;59.50;;;;;;4212596;28;20509;-70
2023/02/16 07:59:35;;;;;;;40.83;26.63;;;16.60;59.30;;;;;;4211308;28;20051;-68
2023/02/16 08:02:16;;;;;;;46.45;30.00;;;16.50;59.10;;;;;;4211228;28;20055;-69
2023/02/16 08:04:57;;;;;;;;;;;16.50;59.20;;;;;;4210396;28;20101;-69
2023/02/16 08:07:40;;;;;;;46.70;30.65;;;16.50;59.20;;;;;;4214796;28;19934;-71
2023/02/16 08:10:21;;;;;;;44.03;29.85;;;16.50;59.00;;;;;;4225706;27;20174;-70
2023/02/16 08:13:02;;;;;;;46.55;31.08;;;16.50;58.90;;;;;;4210269;27;20078;-72
2023/02/16 08:15:44;;;;;;;49.17;31.88;;;16.50;59.50;;;;;;4209574;28;20055;-70
2023/02/16 08:18:24;;;;;;;43.63;27.60;;;16.40;58.80;;;;;;4209587;28;20051;-70
2023/02/16 08:21:13;;;;;;;42.63;29.10;;;16.40;58.90;;;;;;4209014;28;20054;-69
2023/02/16 08:23:57;;;;;;;42.80;29.23;;;16.30;59.00;;;;;;4213095;28;20050;-70
2023/02/16 08:26:39;;;;;;;42.63;27.70;;;16.20;59.20;;;;;;4224934;28;20074;-69
2023/02/16 08:29:21;;;;;;;48.15;33.08;;;16.10;59.40;;;;;;4227070;27;20065;-70
2023/02/16 08:32:06;;;;;;;42.63;28.50;;;16.20;59.50;;;;;;4221528;28;20054;-70
2023/02/16 08:34:47;;;;;;;44.60;29.63;;;16.30;59.40;;;;;;4227207;28;20047;-71
2023/02/16 08:37:28;;;;;;;49.65;32.25;;;16.40;59.10;;;;;;4227123;27;20047;-70
2023/02/16 08:40:11;;;;;;;41.25;30.08;;;16.40;58.70;;;;;;4227175;27;20047;-69
2023/02/16 08:42:52;;;;;;;47.95;32.85;;;16.50;58.80;;;;;;4226161;27;20047;-69
2023/02/16 08:45:33;;;;;;;36.88;23.70;;;16.50;58.90;;;;;;4226887;28;20046;-69
2023/02/16 08:48:15;;;;;;;47.78;31.45;;;16.50;59.10;;;;;;4210486;28;20051;-69
2023/02/16 08:50:57;;;;;;;42.70;28.48;;;16.50;59.50;;;;;;4216020;28;20054;-69
2023/02/16 08:53:37;;;;;;;44.17;29.00;;;16.60;60.00;;;;;;4204344;27;20055;-69
2023/02/16 08:56:20;;;;;;;40.63;25.50;;;16.60;60.20;;;;;;4208004;28;20441;-68
2023/02/16 08:59:01;;;;;;;42.30;30.30;;;16.70;60.10;;;;;;4208754;28;20055;-68
2023/02/16 09:01:42;;;;;;;44.22;28.92;;;16.70;60.20;;;;;;4224758;28;20062;-68
2023/02/16 09:04:24;;;;;;;46.35;25.15;;;16.70;59.90;;;;;;4226831;27;20050;-69
2023/02/16 09:07:05;;;;;;;44.67;30.67;;;16.80;59.40;;;;;;4225226;27;20185;-68
2023/02/16 09:09:47;;;;;;;42.83;28.35;;;16.80;59.70;;;;;;4226439;27;20058;-68
2023/02/16 09:12:34;;;;;;;42.10;26.73;;;16.80;58.90;;;;;;4226282;27;20071;-68
2023/02/16 09:15:15;;;;;;;40.58;27.90;;;16.80;58.90;;;;;;4210259;28;20502;-62
2023/02/16 09:17:56;;;;;;;43.13;25.63;;;16.70;59.00;;;;;;4226965;27;20051;-67
2023/02/16 09:20:38;;;;;;;43.17;25.50;;;16.70;58.80;;;;;;4217481;28;20043;-67
2023/02/16 09:23:20;;;;;;;46.63;29.70;;;16.80;58.50;;;;;;4222098;28;20054;-69
2023/02/16 09:26:01;;;;;;;44.03;28.70;;;16.80;58.30;;;;;;4226745;27;20056;-69
2023/02/16 09:28:46;;;;;;;48.15;27.63;;;16.80;58.20;;;;;;4211214;28;20047;-68
2023/02/16 09:31:29;;;;;;;47.90;30.33;;;16.80;58.10;;;;;;4226152;28;20116;-68
2023/02/16 09:34:16;;;;;;;46.78;29.92;;;16.90;58.00;;;;;;4208139;28;20051;-69
2023/02/16 09:36:57;;;;;;;40.50;24.85;;;16.90;57.90;;;;;;4207161;28;20054;-68
2023/02/16 09:39:38;;;;;;;46.58;29.52;;;16.80;57.90;;;;;;4204300;28;20178;-69
2023/02/16 09:42:30;;;;;;;42.38;28.50;;;16.70;57.90;;;;;;4224611;27;20049;-68
2023/02/16 09:45:16;;;;;;;46.30;29.58;;;16.70;58.10;;;;;;4226502;28;20055;-68
2023/02/16 09:47:58;;;;;;;47.67;28.30;;;16.60;58.40;;;;;;4224936;28;20410;-68
2023/02/16 09:50:39;;;;;;;42.30;27.50;;;16.50;58.90;;;;;;4226589;27;20054;-69
2023/02/16 09:53:38;;;;;;;43.08;27.50;;;16.60;58.90;;;;;;4226281;28;20091;-67
2023/02/16 09:56:26;;;;;;;46.30;30.23;;;16.60;58.50;;;;;;4226025;27;20050;-68
2023/02/16 09:59:14;;;;;;;46.67;29.45;;;16.70;58.30;;;;;;4225814;28;20089;-68
2023/02/16 10:02:07;;;;;;;43.20;27.33;;;16.70;58.20;;;;;;4216559;28;20059;-69
2023/02/16 10:04:56;;;;;;;46.10;30.90;;;16.60;58.20;;;;;;4225679;28;20189;-68
2023/02/16 10:07:45;;;;;;;39.63;25.30;;;16.60;58.30;;;;;;4224387;28;20094;-67
2023/02/16 10:10:32;;;;;;;49.58;31.00;;;16.60;58.30;;;;;;4224922;28;20053;-67
2023/02/16 10:13:22;;;;;;;46.00;31.48;;;16.70;58.20;;;;;;4226228;28;20109;-68
2023/02/16 10:16:06;;;;;;;45.30;28.42;;;16.70;58.00;;;;;;4220215;28;20120;-69
2023/02/16 10:18:51;;;;;;;48.65;31.75;;;16.70;58.00;;;;;;4222767;28;20068;-67
2023/02/16 10:21:32;;;;;;;43.75;26.63;;;16.70;58.00;;;;;;4207887;28;20047;-67
2023/02/16 10:24:14;;;;;;;49.65;31.17;;;16.70;58.20;;;;;;4209043;28;20105;-68
2023/02/16 10:27:02;;;;;;;48.00;31.90;;;16.60;58.30;;;;;;4209214;28;20177;-69
2023/02/16 10:29:43;;;;;;;45.97;27.38;;;16.50;58.50;;;;;;4224840;28;20055;-69
2023/02/16 10:32:28;;;;;;;49.75;28.83;;;16.50;58.70;;;;;;4225107;28;20623;-70
2023/02/16 10:35:16;;;;;;;50.17;30.25;;;16.50;58.70;;;;;;4225564;28;20055;-69
2023/02/16 10:38:06;;;;;;;43.35;28.02;;;16.60;58.60;;;;;;4190908;28;20047;-69
2023/02/16 10:40:55;;;;;;;48.58;27.90;;;16.50;58.50;;;;;;4198480;28;20096;-70
2023/02/16 10:43:43;;;;;;;46.03;28.80;;;16.50;58.70;;;;;;4210249;28;20051;-69
2023/02/16 10:46:31;;;;;;;48.95;28.88;;;16.50;58.80;;;;;;4225762;28;20047;-69
2023/02/16 10:49:14;;;;;;;32.80;18.90;;;16.60;58.70;;;;;;4193352;28;20056;-70
2023/02/16 10:51:57;;;;;;;51.67;30.40;;;16.60;58.70;;;;;;4209127;28;20403;-69
2023/02/16 10:54:39;;;;;;;50.88;31.70;;;16.50;58.70;;;;;;4208966;28;20062;-69
2023/02/16 10:57:26;;;;;;;44.47;27.42;;;16.50;58.80;;;;;;4220187;28;20047;-69
2023/02/16 11:00:13;;;;;;;53.38;33.53;;;16.50;59.00;;;;;;4208947;28;20125;-69
2023/02/16 11:02:54;;;;;;;51.22;26.35;;;16.50;59.30;;;;;;4207169;28;20071;-69
2023/02/16 11:05:37;;;;;;;53.95;31.40;;;16.50;59.40;;;;;;4207296;28;20161;-70
2023/02/16 11:08:19;;;;;;;50.30;32.08;;;16.50;59.50;;;;;;4207673;28;20055;-68
2023/02/16 11:11:09;;;;;;;57.72;33.20;;;16.50;59.30;;;;;;4208702;28;20067;-68
2023/02/16 11:13:57;;;;;;;48.55;30.85;;;16.60;60.00;;;;;;4196144;28;20058;-69
2023/02/16 11:16:38;;;;;;;51.20;33.85;;;16.50;59.20;;;;;;4222363;28;21126;-68
2023/02/16 11:19:22;;;;;;;50.75;32.03;;;16.50;59.30;;;;;;4223622;28;20062;-69
2023/02/16 11:22:02;;;;;;;56.35;33.67;;;16.50;59.30;;;;;;4208841;28;20101;-68
2023/02/16 11:24:45;;;;;;;50.58;30.67;;;16.50;59.30;;;;;;4217995;28;20104;-68
2023/02/16 11:27:26;;;;;;;53.83;34.13;;;16.50;59.40;;;;;;4219241;28;20406;-69
2023/02/16 11:30:22;;;;;;;35.72;20.08;;;16.50;59.50;;;;;;4227619;27;20054;-68
2023/02/16 11:33:17;;;;;;;54.88;31.33;;;16.50;59.50;;;;;;4227980;28;20094;-68
2023/02/16 11:36:01;;;;;;;46.72;28.02;;;16.50;59.60;;;;;;4228208;27;20124;-69
2023/02/16 11:38:42;;;;;;;47.90;28.30;;;16.50;59.60;;;;;;4211266;28;20066;-68
2023/02/16 11:41:26;;;;;;;51.47;29.58;;;16.50;59.70;;;;;;4224930;27;20053;-67
2023/02/16 11:44:24;;;;;;;51.88;30.52;;;16.50;59.80;;;;;;4209715;28;20059;-69
2023/02/16 11:47:08;;;;;;;52.28;31.35;;;16.50;59.80;;;;;;4211035;28;20058;-68
2023/02/16 11:49:51;;;;;;;54.72;30.10;;;16.60;59.60;;;;;;4211645;28;20055;-68
2023/02/16 11:52:32;;;;;;;51.22;34.25;;;16.60;59.50;;;;;;4197704;28;20075;-67
2023/02/16 11:55:22;;;;;;;53.38;32.10;;;16.70;60.30;;;;;;4224455;27;20047;-67
2023/02/16 11:58:23;;;;;;;45.65;29.52;;;16.60;59.50;;;;;;4209334;28;20114;-68
2023/02/16 12:01:20;;;;;;;51.95;32.80;;;16.60;59.70;;;;;;4210538;28;20056;-68
2023/02/16 12:04:12;;;;;;;51.67;30.35;;;16.50;59.90;;;;;;4210725;28;20066;-68
2023/02/16 12:07:05;;;;;;;55.45;34.50;;;16.40;61.10;;;;;;4223553;27;20511;-68
2023/02/16 12:09:53;;;;;;;54.38;34.63;;;16.40;60.60;;;;;;4227190;28;20089;-66
2023/02/16 12:12:46;;;;;;;55.58;36.08;;;16.40;60.80;;;;;;4227606;27;20075;-68
2023/02/16 12:15:35;;;;;;;52.78;34.70;;;16.40;61.00;;;;;;4224223;27;20497;-69
2023/02/16 12:18:27;;;;;;;53.15;34.40;;;16.30;61.30;;;;;;4213331;28;20070;-68
2023/02/16 12:21:17;;;;;;;57.10;35.20;;;16.30;61.30;;;;;;4218861;28;20153;-68
2023/02/16 12:24:02;;;;;;;58.55;34.20;;;16.40;61.50;;;;;;4226029;27;20069;-68
2023/02/16 12:26:50;;;;;;;55.88;35.47;;;16.40;61.30;;;;;;4211916;27;20059;-69
2023/02/16 12:29:43;;;;;;;58.78;36.97;;;16.50;61.40;;;;;;4210549;28;20097;-69
2023/02/16 12:32:43;;;;;;;59.10;35.40;;;16.50;61.40;;;;;;4212025;28;20055;-71
2023/02/16 12:35:49;;;;;;;58.28;36.28;;;16.50;61.40;;;;;;4225627;28;20072;-69
2023/02/16 12:38:46;;;;;;;59.25;35.17;;;16.50;61.60;;;;;;4225210;28;20051;-69
2023/02/16 12:41:39;;;;;;;54.45;33.70;;;16.40;61.90;;;;;;4211336;28;20046;-73
2023/02/16 12:44:36;;;;;;;58.60;37.80;;;16.40;62.20;;;;;;4212457;28;20051;-69
2023/02/16 12:47:21;;;;;;;54.17;35.35;;;16.50;62.10;;;;;;4208733;28;20182;-70
2023/02/16 12:50:14;;;;;;;56.90;36.08;;;16.50;62.00;;;;;;4209246;28;20063;-69
2023/02/16 12:53:01;;;;;;;53.70;34.28;;;16.60;62.00;;;;;;4209723;28;20054;-70
2023/02/16 12:55:46;;;;;;;53.20;34.95;;;16.60;62.10;;;;;;4195033;28;20118;-69
2023/02/16 12:58:32;;;;;;;55.33;34.67;;;16.60;62.40;;;;;;4208817;28;20833;-69
2023/02/16 13:01:16;;;;;;;50.03;33.10;;;16.50;62.60;;;;;;4221919;27;20051;-70
2023/02/16 13:04:05;;;;;;;51.20;33.72;;;16.60;62.60;;;;;;4226818;27;20058;-70
2023/02/16 13:06:52;;;;;;;47.35;32.17;;;16.60;62.40;;;;;;4226892;28;20062;-69
2023/02/16 13:09:41;;;;;;;56.97;34.88;;;16.70;62.30;;;;;;4226696;28;20055;-68
2023/02/16 13:12:30;;;;;;;50.05;33.17;;;16.70;62.50;;;;;;4226783;28;20042;-70
2023/02/16 13:15:14;;;;;;;46.75;32.22;;;16.60;62.40;;;;;;4225035;28;20558;-69
2023/02/16 13:17:57;;;;;;;48.80;32.78;;;16.60;62.80;;;;;;4215889;28;20062;-70
2023/02/16 13:20:44;;;;;;;45.50;32.70;;;16.50;63.00;;;;;;4224882;28;20489;-69
2023/02/16 13:23:46;;;;;;;44.50;29.75;;;16.50;63.40;;;;;;4227009;27;20596;-70
2023/02/16 13:26:46;;;;;;;48.42;31.20;;;16.50;63.60;;;;;;4225338;27;20513;-70
2023/02/16 13:29:47;;;;;;;42.10;30.27;;;16.50;63.50;;;;;;4226835;27;20046;-70
2023/02/16 13:32:45;;;;;;;44.83;29.33;;;16.60;63.40;;;;;;4225050;28;20062;-62
2023/02/16 13:35:54;;;;;;;43.42;30.65;;;16.60;63.30;;;;;;4226051;27;20046;-61
2023/02/16 13:38:59;;;;;;;42.53;28.40;;;16.60;63.30;;;;;;4226156;27;20062;-61
2023/02/16 13:42:21;;;;;;;38.58;27.58;;;16.60;63.40;;;;;;4209597;28;20055;-62
2023/02/16 13:45:03;;;;;;;43.97;29.30;;;16.50;63.70;;;;;;4208937;28;20055;-62
2023/02/16 13:47:45;;;;;;;46.67;28.75;;;16.60;63.80;;;;;;4209697;28;20688;-61
2023/02/16 13:50:30;;;;;;;38.40;27.42;;;16.60;63.70;;;;;;4207263;28;20042;-62
2023/02/16 13:53:18;;;;;;;40.22;26.92;;;16.70;63.60;;;;;;4209228;28;20050;-62
2023/02/16 13:56:30;;;;;;;36.00;25.42;;;16.70;63.50;;;;;;4209390;28;20494;-61
2023/02/16 13:59:45;;;;;;;37.72;25.00;;;16.70;63.50;;;;;;4210754;28;20184;-62
2023/02/16 14:02:53;;;;;;;34.72;24.17;;;16.70;63.60;;;;;;4208869;28;20509;-61
2023/02/16 14:05:37;;;;;;;35.20;24.45;;;16.60;63.70;;;;;;4213269;27;20047;-62
2023/02/16 14:08:26;;;;;;;39.15;24.60;;;16.60;64.00;;;;;;4212710;28;20076;-62
2023/02/16 14:11:12;;;;;;;32.08;23.83;;;16.60;64.10;;;;;;4222612;28;20413;-62
2023/02/16 14:13:54;;;;;;;30.95;22.00;;;16.60;64.20;;;;;;4225768;28;20047;-62
2023/02/16 14:16:35;;;;;;;29.38;22.02;;;16.50;64.20;;;;;;4225259;28;20262;-62
2023/02/16 14:19:23;;;;;;;30.48;20.25;;;16.50;64.50;;;;;;4225039;28;20766;-62
2023/02/16 14:22:11;;;;;;;32.90;20.50;;;16.50;64.60;;;;;;4220309;28;20513;-62
2023/02/16 14:24:54;;;;;;;32.53;22.30;;;16.40;64.80;;;;;;4217655;28;20054;-61
2023/02/16 14:27:47;;;;;;;31.95;21.80;;;16.50;65.00;;;;;;4210839;28;20051;-62
2023/02/16 14:30:34;;;;;;;28.17;21.83;;;16.50;64.80;;;;;;4224074;28;20620;-63
2023/02/16 14:33:21;;;;;;;31.90;21.75;;;16.50;64.70;;;;;;4225431;28;20050;-62
2023/02/16 14:36:13;;;;;;;32.20;21.65;;;16.50;64.60;;;;;;4225814;28;20066;-70
2023/02/16 14:38:57;;;;;;;32.42;22.50;;;16.50;64.50;;;;;;4207132;28;20121;-69